sensor_id;sensor_type;location;lat;lon;timestamp;P1;durP1;ratioP1;P2;durP2;ratioP2
8592;SDS011;4334;49.982;8.398;2023-06-26T00:02:13;6.40;;;4.10;;
8592;SDS011;4334;49.982;8.398;2023-06-26T00:04:41;5.43;;;4.00;;
8592;SDS011;4334;49.982;8.398;2023-06-26T00:07:08;4.50;;;3.70;;
8592;SDS011;4334;49.982;8.398;2023-06-26T00:09:35;4.50;;;3.60;;
8592;SDS011;4334;49.982;8.398;2023-06-26T00:12:02;5.23;;;4.00;;
8592;SDS011;4334;49.982;8.398;2023-06-26T00:14:30;6.30;;;4.00;;
8592;SDS011;4334;49.982;8.398;2023-06-26T00:16:57;5.33;;;4.00;;
8592;SDS011;4334;49.982;8.398;2023-06-26T00:19:24;7.50;;;3.93;;
8592;SDS011;4334;49.982;8.398;2023-06-26T00:21:51;5.03;;;3.77;;
8592;SDS011;4334;49.982;8.398;2023-06-26T00:24:18;4.83;;;3.97;;
8592;SDS011;4334;49.982;8.398;2023-06-26T00:26:46;7.63;;;3.93;;
8592;SDS011;4334;49.982;8.398;2023-06-26T00:29:13;6.50;;;3.90;;
8592;SDS011;4334;49.982;8.398;2023-06-26T00:31:41;6.00;;;3.50;;
8592;SDS011;4334;49.982;8.398;2023-06-26T00:34:08;4.80;;;3.57;;
8592;SDS011;4334;49.982;8.398;2023-06-26T00:36:35;6.37;;;4.10;;
8592;SDS011;4334;49.982;8.398;2023-06-26T00:39:02;5.70;;;3.67;;
8592;SDS011;4334;49.982;8.398;2023-06-26T00:41:30;5.93;;;4.20;;
8592;SDS011;4334;49.982;8.398;2023-06-26T00:43:57;5.67;;;4.10;;
8592;SDS011;4334;49.982;8.398;2023-06-26T00:46:24;4.83;;;3.53;;
8592;SDS011;4334;49.982;8.398;2023-06-26T00:48:53;4.90;;;3.93;;
8592;SDS011;4334;49.982;8.398;2023-06-26T00:51:21;6.90;;;4.27;;
8592;SDS011;4334;49.982;8.398;2023-06-26T00:53:48;5.70;;;3.93;;
8592;SDS011;4334;49.982;8.398;2023-06-26T00:56:15;5.87;;;4.30;;
8592;SDS011;4334;49.982;8.398;2023-06-26T00:58:44;5.50;;;4.30;;
8592;SDS011;4334;49.982;8.398;2023-06-26T01:01:11;4.87;;;3.70;;
8592;SDS011;4334;49.982;8.398;2023-06-26T01:03:41;17.97;;;4.77;;
8592;SDS011;4334;49.982;8.398;2023-06-26T01:06:09;7.57;;;4.83;;
8592;SDS011;4334;49.982;8.398;2023-06-26T01:08:38;12.93;;;4.70;;
8592;SDS011;4334;49.982;8.398;2023-06-26T01:11:06;4.30;;;3.43;;
8592;SDS011;4334;49.982;8.398;2023-06-26T01:13:33;5.70;;;4.07;;
8592;SDS011;4334;49.982;8.398;2023-06-26T01:16:01;4.67;;;3.83;;
8592;SDS011;4334;49.982;8.398;2023-06-26T01:18:28;4.40;;;3.97;;
8592;SDS011;4334;49.982;8.398;2023-06-26T01:20:56;5.90;;;4.07;;
8592;SDS011;4334;49.982;8.398;2023-06-26T01:23:29;6.30;;;4.27;;
8592;SDS011;4334;49.982;8.398;2023-06-26T01:26:11;4.87;;;3.43;;
8592;SDS011;4334;49.982;8.398;2023-06-26T01:28:42;5.33;;;3.83;;
8592;SDS011;4334;49.982;8.398;2023-06-26T01:31:10;6.27;;;4.27;;
8592;SDS011;4334;49.982;8.398;2023-06-26T01:33:38;5.27;;;3.97;;
8592;SDS011;4334;49.982;8.398;2023-06-26T01:36:05;5.73;;;4.43;;
8592;SDS011;4334;49.982;8.398;2023-06-26T01:38:33;6.17;;;4.13;;
8592;SDS011;4334;49.982;8.398;2023-06-26T01:41:00;4.43;;;3.60;;
8592;SDS011;4334;49.982;8.398;2023-06-26T01:43:30;5.50;;;4.50;;
8592;SDS011;4334;49.982;8.398;2023-06-26T01:46:02;5.90;;;4.00;;
8592;SDS011;4334;49.982;8.398;2023-06-26T01:48:33;6.53;;;4.10;;
8592;SDS011;4334;49.982;8.398;2023-06-26T01:51:04;8.10;;;4.80;;
8592;SDS011;4334;49.982;8.398;2023-06-26T01:53:34;5.30;;;3.97;;
8592;SDS011;4334;49.982;8.398;2023-06-26T01:56:05;5.00;;;3.57;;
8592;SDS011;4334;49.982;8.398;2023-06-26T01:58:36;5.33;;;3.93;;
8592;SDS011;4334;49.982;8.398;2023-06-26T02:01:06;4.93;;;3.43;;
8592;SDS011;4334;49.982;8.398;2023-06-26T02:03:34;5.20;;;4.00;;
8592;SDS011;4334;49.982;8.398;2023-06-26T02:06:01;11.03;;;4.17;;
8592;SDS011;4334;49.982;8.398;2023-06-26T02:08:28;5.43;;;4.13;;
8592;SDS011;4334;49.982;8.398;2023-06-26T02:10:55;6.13;;;4.37;;
8592;SDS011;4334;49.982;8.398;2023-06-26T02:13:22;5.67;;;4.57;;
8592;SDS011;4334;49.982;8.398;2023-06-26T02:15:51;6.83;;;4.40;;
8592;SDS011;4334;49.982;8.398;2023-06-26T02:18:18;6.07;;;4.40;;
8592;SDS011;4334;49.982;8.398;2023-06-26T02:20:47;6.47;;;4.60;;
8592;SDS011;4334;49.982;8.398;2023-06-26T02:23:14;10.47;;;4.27;;
8592;SDS011;4334;49.982;8.398;2023-06-26T02:25:41;6.57;;;4.57;;
8592;SDS011;4334;49.982;8.398;2023-06-26T02:28:08;9.97;;;4.00;;
8592;SDS011;4334;49.982;8.398;2023-06-26T02:30:36;6.07;;;4.40;;
8592;SDS011;4334;49.982;8.398;2023-06-26T02:33:04;4.27;;;3.87;;
8592;SDS011;4334;49.982;8.398;2023-06-26T02:35:31;11.37;;;5.10;;
8592;SDS011;4334;49.982;8.398;2023-06-26T02:37:59;6.40;;;4.70;;
8592;SDS011;4334;49.982;8.398;2023-06-26T02:40:26;12.87;;;4.57;;
8592;SDS011;4334;49.982;8.398;2023-06-26T02:42:53;8.70;;;4.23;;
8592;SDS011;4334;49.982;8.398;2023-06-26T02:45:20;5.90;;;4.77;;
8592;SDS011;4334;49.982;8.398;2023-06-26T02:47:47;4.87;;;3.67;;
8592;SDS011;4334;49.982;8.398;2023-06-26T02:50:15;8.40;;;4.63;;
8592;SDS011;4334;49.982;8.398;2023-06-26T02:52:42;6.10;;;4.23;;
8592;SDS011;4334;49.982;8.398;2023-06-26T02:55:09;8.97;;;4.63;;
8592;SDS011;4334;49.982;8.398;2023-06-26T02:57:36;6.17;;;4.43;;
8592;SDS011;4334;49.982;8.398;2023-06-26T03:00:04;6.63;;;4.40;;
8592;SDS011;4334;49.982;8.398;2023-06-26T03:02:33;6.67;;;4.23;;
8592;SDS011;4334;49.982;8.398;2023-06-26T03:05:00;7.37;;;4.03;;
8592;SDS011;4334;49.982;8.398;2023-06-26T03:07:30;7.70;;;4.33;;
8592;SDS011;4334;49.982;8.398;2023-06-26T03:09:57;5.37;;;3.73;;
8592;SDS011;4334;49.982;8.398;2023-06-26T03:12:25;5.97;;;4.20;;
8592;SDS011;4334;49.982;8.398;2023-06-26T03:14:52;9.03;;;4.37;;
8592;SDS011;4334;49.982;8.398;2023-06-26T03:17:19;9.13;;;4.43;;
8592;SDS011;4334;49.982;8.398;2023-06-26T03:19:47;6.20;;;4.20;;
8592;SDS011;4334;49.982;8.398;2023-06-26T03:22:14;6.50;;;4.13;;
8592;SDS011;4334;49.982;8.398;2023-06-26T03:24:42;5.60;;;4.43;;
8592;SDS011;4334;49.982;8.398;2023-06-26T03:27:10;6.87;;;5.17;;
8592;SDS011;4334;49.982;8.398;2023-06-26T03:29:37;6.13;;;4.30;;
8592;SDS011;4334;49.982;8.398;2023-06-26T03:32:05;7.83;;;4.63;;
8592;SDS011;4334;49.982;8.398;2023-06-26T03:34:32;5.77;;;4.37;;
8592;SDS011;4334;49.982;8.398;2023-06-26T03:36:59;5.63;;;4.10;;
8592;SDS011;4334;49.982;8.398;2023-06-26T03:39:27;4.70;;;3.90;;
8592;SDS011;4334;49.982;8.398;2023-06-26T03:41:55;5.77;;;4.40;;
8592;SDS011;4334;49.982;8.398;2023-06-26T03:44:25;6.40;;;4.50;;
8592;SDS011;4334;49.982;8.398;2023-06-26T03:46:52;6.07;;;4.07;;
8592;SDS011;4334;49.982;8.398;2023-06-26T03:49:19;9.27;;;4.37;;
8592;SDS011;4334;49.982;8.398;2023-06-26T03:51:46;5.63;;;4.10;;
8592;SDS011;4334;49.982;8.398;2023-06-26T03:54:14;7.00;;;4.83;;
8592;SDS011;4334;49.982;8.398;2023-06-26T03:56:41;6.33;;;4.03;;
8592;SDS011;4334;49.982;8.398;2023-06-26T03:59:09;5.83;;;4.10;;
8592;SDS011;4334;49.982;8.398;2023-06-26T04:01:36;10.13;;;4.47;;
8592;SDS011;4334;49.982;8.398;2023-06-26T04:04:04;5.87;;;4.50;;
8592;SDS011;4334;49.982;8.398;2023-06-26T04:06:31;5.83;;;4.37;;
8592;SDS011;4334;49.982;8.398;2023-06-26T04:08:58;6.23;;;4.47;;
8592;SDS011;4334;49.982;8.398;2023-06-26T04:11:25;5.57;;;4.17;;
8592;SDS011;4334;49.982;8.398;2023-06-26T04:13:53;5.03;;;3.87;;
8592;SDS011;4334;49.982;8.398;2023-06-26T04:16:21;6.13;;;4.17;;
8592;SDS011;4334;49.982;8.398;2023-06-26T04:18:50;5.23;;;4.07;;
8592;SDS011;4334;49.982;8.398;2023-06-26T04:21:18;5.53;;;4.03;;
8592;SDS011;4334;49.982;8.398;2023-06-26T04:23:45;11.13;;;4.30;;
8592;SDS011;4334;49.982;8.398;2023-06-26T04:26:12;7.50;;;4.33;;
8592;SDS011;4334;49.982;8.398;2023-06-26T04:28:40;9.17;;;4.23;;
8592;SDS011;4334;49.982;8.398;2023-06-26T04:31:07;6.57;;;3.87;;
8592;SDS011;4334;49.982;8.398;2023-06-26T04:33:37;6.23;;;3.63;;
8592;SDS011;4334;49.982;8.398;2023-06-26T04:36:04;4.30;;;3.90;;
8592;SDS011;4334;49.982;8.398;2023-06-26T04:38:32;5.87;;;4.13;;
8592;SDS011;4334;49.982;8.398;2023-06-26T04:40:59;17.23;;;8.25;;
8592;SDS011;4334;49.982;8.398;2023-06-26T04:43:26;18.10;;;8.65;;
8592;SDS011;4334;49.982;8.398;2023-06-26T04:45:52;17.13;;;7.85;;
8592;SDS011;4334;49.982;8.398;2023-06-26T04:48:19;5.43;;;4.40;;
8592;SDS011;4334;49.982;8.398;2023-06-26T04:50:47;5.90;;;4.13;;
8592;SDS011;4334;49.982;8.398;2023-06-26T04:53:18;16.27;;;5.70;;
8592;SDS011;4334;49.982;8.398;2023-06-26T04:55:46;11.25;;;5.65;;
8592;SDS011;4334;49.982;8.398;2023-06-26T04:58:13;7.93;;;4.60;;
8592;SDS011;4334;49.982;8.398;2023-06-26T05:00:39;4.80;;;3.67;;
8592;SDS011;4334;49.982;8.398;2023-06-26T05:03:07;8.35;;;4.10;;
8592;SDS011;4334;49.982;8.398;2023-06-26T05:05:34;7.90;;;3.88;;
8592;SDS011;4334;49.982;8.398;2023-06-26T05:08:14;8.35;;;3.78;;
8592;SDS011;4334;49.982;8.398;2023-06-26T05:10:41;4.68;;;3.60;;
8592;SDS011;4334;49.982;8.398;2023-06-26T05:13:08;4.43;;;3.88;;
8592;SDS011;4334;49.982;8.398;2023-06-26T05:15:35;4.93;;;3.45;;
8592;SDS011;4334;49.982;8.398;2023-06-26T05:18:02;5.35;;;3.58;;
8592;SDS011;4334;49.982;8.398;2023-06-26T05:20:29;5.93;;;3.90;;
8592;SDS011;4334;49.982;8.398;2023-06-26T05:22:56;5.50;;;3.90;;
8592;SDS011;4334;49.982;8.398;2023-06-26T05:25:25;4.50;;;3.83;;
8592;SDS011;4334;49.982;8.398;2023-06-26T05:27:54;7.88;;;4.18;;
8592;SDS011;4334;49.982;8.398;2023-06-26T05:30:21;4.55;;;4.00;;
8592;SDS011;4334;49.982;8.398;2023-06-26T05:32:50;9.98;;;3.53;;
8592;SDS011;4334;49.982;8.398;2023-06-26T05:35:18;4.82;;;3.47;;
8592;SDS011;4334;49.982;8.398;2023-06-26T05:37:47;9.88;;;3.75;;
8592;SDS011;4334;49.982;8.398;2023-06-26T05:40:16;5.60;;;3.60;;
8592;SDS011;4334;49.982;8.398;2023-06-26T05:42:46;5.07;;;3.65;;
8592;SDS011;4334;49.982;8.398;2023-06-26T05:45:13;4.00;;;3.60;;
8592;SDS011;4334;49.982;8.398;2023-06-26T05:47:40;7.15;;;3.40;;
8592;SDS011;4334;49.982;8.398;2023-06-26T05:50:07;4.10;;;3.70;;
8592;SDS011;4334;49.982;8.398;2023-06-26T05:52:35;3.72;;;3.30;;
8592;SDS011;4334;49.982;8.398;2023-06-26T05:55:04;3.63;;;3.00;;
8592;SDS011;4334;49.982;8.398;2023-06-26T05:57:31;3.10;;;2.80;;
8592;SDS011;4334;49.982;8.398;2023-06-26T06:00:01;3.70;;;3.10;;
8592;SDS011;4334;49.982;8.398;2023-06-26T06:02:30;3.50;;;3.20;;
8592;SDS011;4334;49.982;8.398;2023-06-26T06:04:57;4.03;;;2.90;;
8592;SDS011;4334;49.982;8.398;2023-06-26T06:07:24;3.40;;;3.00;;
8592;SDS011;4334;49.982;8.398;2023-06-26T06:09:51;5.75;;;3.33;;
8592;SDS011;4334;49.982;8.398;2023-06-26T06:12:18;3.78;;;3.10;;
8592;SDS011;4334;49.982;8.398;2023-06-26T06:14:44;5.32;;;3.20;;
8592;SDS011;4334;49.982;8.398;2023-06-26T06:17:12;3.78;;;2.85;;
8592;SDS011;4334;49.982;8.398;2023-06-26T06:19:39;4.32;;;3.10;;
8592;SDS011;4334;49.982;8.398;2023-06-26T06:22:06;5.63;;;3.28;;
8592;SDS011;4334;49.982;8.398;2023-06-26T06:24:32;5.68;;;2.75;;
8592;SDS011;4334;49.982;8.398;2023-06-26T06:26:59;4.20;;;3.25;;
8592;SDS011;4334;49.982;8.398;2023-06-26T06:29:26;4.38;;;3.20;;
8592;SDS011;4334;49.982;8.398;2023-06-26T06:31:53;4.13;;;3.72;;
8592;SDS011;4334;49.982;8.398;2023-06-26T06:34:22;4.20;;;3.13;;
8592;SDS011;4334;49.982;8.398;2023-06-26T06:36:49;4.07;;;3.10;;
8592;SDS011;4334;49.982;8.398;2023-06-26T06:39:16;9.18;;;3.63;;
8592;SDS011;4334;49.982;8.398;2023-06-26T06:41:43;4.68;;;3.25;;
8592;SDS011;4334;49.982;8.398;2023-06-26T06:44:10;3.58;;;3.10;;
8592;SDS011;4334;49.982;8.398;2023-06-26T06:46:37;3.78;;;3.20;;
8592;SDS011;4334;49.982;8.398;2023-06-26T06:49:04;3.60;;;3.25;;
8592;SDS011;4334;49.982;8.398;2023-06-26T06:51:33;4.40;;;3.75;;
8592;SDS011;4334;49.982;8.398;2023-06-26T06:54:00;3.95;;;3.40;;
8592;SDS011;4334;49.982;8.398;2023-06-26T06:56:27;4.50;;;3.42;;
8592;SDS011;4334;49.982;8.398;2023-06-26T06:58:54;4.80;;;3.38;;
8592;SDS011;4334;49.982;8.398;2023-06-26T07:01:21;8.93;;;3.35;;
8592;SDS011;4334;49.982;8.398;2023-06-26T07:03:48;4.72;;;3.53;;
8592;SDS011;4334;49.982;8.398;2023-06-26T07:06:15;5.20;;;3.55;;
8592;SDS011;4334;49.982;8.398;2023-06-26T07:08:43;8.85;;;3.28;;
8592;SDS011;4334;49.982;8.398;2023-06-26T07:11:10;3.97;;;3.20;;
8592;SDS011;4334;49.982;8.398;2023-06-26T07:13:37;3.80;;;3.08;;
8592;SDS011;4334;49.982;8.398;2023-06-26T07:16:04;3.83;;;3.42;;
8592;SDS011;4334;49.982;8.398;2023-06-26T07:18:32;3.40;;;3.10;;
8592;SDS011;4334;49.982;8.398;2023-06-26T07:20:59;3.78;;;3.13;;
8592;SDS011;4334;49.982;8.398;2023-06-26T07:23:26;5.78;;;3.63;;
8592;SDS011;4334;49.982;8.398;2023-06-26T07:25:55;5.18;;;3.17;;
8592;SDS011;4334;49.982;8.398;2023-06-26T07:28:21;4.13;;;3.58;;
8592;SDS011;4334;49.982;8.398;2023-06-26T07:30:48;7.63;;;3.70;;
8592;SDS011;4334;49.982;8.398;2023-06-26T07:33:15;4.40;;;3.40;;
8592;SDS011;4334;49.982;8.398;2023-06-26T07:35:43;3.60;;;3.17;;
8592;SDS011;4334;49.982;8.398;2023-06-26T07:38:10;5.25;;;3.17;;
8592;SDS011;4334;49.982;8.398;2023-06-26T07:40:37;3.20;;;2.80;;
8592;SDS011;4334;49.982;8.398;2023-06-26T07:43:06;4.40;;;3.25;;
8592;SDS011;4334;49.982;8.398;2023-06-26T07:45:32;6.53;;;3.13;;
8592;SDS011;4334;49.982;8.398;2023-06-26T07:47:59;4.45;;;3.22;;
8592;SDS011;4334;49.982;8.398;2023-06-26T07:50:26;3.60;;;3.00;;
8592;SDS011;4334;49.982;8.398;2023-06-26T07:52:53;4.45;;;2.95;;
8592;SDS011;4334;49.982;8.398;2023-06-26T07:55:21;3.00;;;2.70;;
8592;SDS011;4334;49.982;8.398;2023-06-26T07:57:48;4.32;;;3.08;;
8592;SDS011;4334;49.982;8.398;2023-06-26T08:00:18;3.17;;;2.85;;
8592;SDS011;4334;49.982;8.398;2023-06-26T08:02:45;3.65;;;2.95;;
8592;SDS011;4334;49.982;8.398;2023-06-26T08:05:12;3.97;;;3.30;;
8592;SDS011;4334;49.982;8.398;2023-06-26T08:07:40;7.03;;;3.08;;
8592;SDS011;4334;49.982;8.398;2023-06-26T08:10:07;3.10;;;2.80;;
8592;SDS011;4334;49.982;8.398;2023-06-26T08:12:34;3.10;;;2.80;;
8592;SDS011;4334;49.982;8.398;2023-06-26T08:15:06;4.40;;;3.33;;
8592;SDS011;4334;49.982;8.398;2023-06-26T08:17:35;4.00;;;3.50;;
8592;SDS011;4334;49.982;8.398;2023-06-26T08:20:03;8.30;;;3.25;;
8592;SDS011;4334;49.982;8.398;2023-06-26T08:22:33;6.97;;;3.25;;
8592;SDS011;4334;49.982;8.398;2023-06-26T08:25:00;3.65;;;3.20;;
8592;SDS011;4334;49.982;8.398;2023-06-26T08:27:27;4.68;;;3.22;;
8592;SDS011;4334;49.982;8.398;2023-06-26T08:29:54;3.63;;;3.00;;
8592;SDS011;4334;49.982;8.398;2023-06-26T08:32:21;5.30;;;3.22;;
8592;SDS011;4334;49.982;8.398;2023-06-26T08:34:49;3.97;;;3.20;;
8592;SDS011;4334;49.982;8.398;2023-06-26T08:37:17;3.75;;;3.25;;
8592;SDS011;4334;49.982;8.398;2023-06-26T08:39:43;5.15;;;2.90;;
8592;SDS011;4334;49.982;8.398;2023-06-26T08:42:11;3.75;;;3.22;;
8592;SDS011;4334;49.982;8.398;2023-06-26T08:44:37;3.17;;;2.88;;
8592;SDS011;4334;49.982;8.398;2023-06-26T08:47:04;3.80;;;3.10;;
8592;SDS011;4334;49.982;8.398;2023-06-26T08:49:34;4.32;;;3.13;;
8592;SDS011;4334;49.982;8.398;2023-06-26T08:52:10;3.20;;;2.90;;
8592;SDS011;4334;49.982;8.398;2023-06-26T08:54:43;5.07;;;2.83;;
8592;SDS011;4334;49.982;8.398;2023-06-26T08:57:13;3.42;;;3.13;;
8592;SDS011;4334;49.982;8.398;2023-06-26T08:59:41;8.13;;;2.88;;
8592;SDS011;4334;49.982;8.398;2023-06-26T09:02:09;5.38;;;3.22;;
8592;SDS011;4334;49.982;8.398;2023-06-26T09:04:37;5.35;;;2.65;;
8592;SDS011;4334;49.982;8.398;2023-06-26T09:07:05;3.13;;;2.83;;
8592;SDS011;4334;49.982;8.398;2023-06-26T09:09:35;3.17;;;2.88;;
8592;SDS011;4334;49.982;8.398;2023-06-26T09:12:03;3.40;;;3.00;;
8592;SDS011;4334;49.982;8.398;2023-06-26T09:14:30;4.10;;;3.05;;
8592;SDS011;4334;49.982;8.398;2023-06-26T09:16:57;3.33;;;3.03;;
8592;SDS011;4334;49.982;8.398;2023-06-26T09:19:24;5.70;;;3.05;;
8592;SDS011;4334;49.982;8.398;2023-06-26T09:21:52;3.15;;;2.75;;
8592;SDS011;4334;49.982;8.398;2023-06-26T09:24:19;4.15;;;2.95;;
8592;SDS011;4334;49.982;8.398;2023-06-26T09:26:48;4.55;;;2.70;;
8592;SDS011;4334;49.982;8.398;2023-06-26T09:29:16;3.53;;;2.85;;
8592;SDS011;4334;49.982;8.398;2023-06-26T09:31:43;3.97;;;3.35;;
8592;SDS011;4334;49.982;8.398;2023-06-26T09:34:11;6.72;;;3.17;;
8592;SDS011;4334;49.982;8.398;2023-06-26T09:36:38;7.88;;;3.45;;
8592;SDS011;4334;49.982;8.398;2023-06-26T09:39:07;3.50;;;3.20;;
8592;SDS011;4334;49.982;8.398;2023-06-26T09:41:36;3.13;;;2.83;;
8592;SDS011;4334;49.982;8.398;2023-06-26T09:44:06;3.05;;;2.75;;
8592;SDS011;4334;49.982;8.398;2023-06-26T09:46:33;6.32;;;2.97;;
8592;SDS011;4334;49.982;8.398;2023-06-26T09:49:03;3.60;;;3.10;;
8592;SDS011;4334;49.982;8.398;2023-06-26T09:51:30;3.97;;;2.88;;
8592;SDS011;4334;49.982;8.398;2023-06-26T09:53:58;5.47;;;2.80;;
8592;SDS011;4334;49.982;8.398;2023-06-26T09:56:25;3.17;;;2.78;;
8592;SDS011;4334;49.982;8.398;2023-06-26T09:58:52;7.07;;;2.92;;
8592;SDS011;4334;49.982;8.398;2023-06-26T10:01:22;3.00;;;2.70;;
8592;SDS011;4334;49.982;8.398;2023-06-26T10:03:49;3.33;;;2.83;;
8592;SDS011;4334;49.982;8.398;2023-06-26T10:06:17;3.95;;;3.30;;
8592;SDS011;4334;49.982;8.398;2023-06-26T10:08:45;2.72;;;2.50;;
8592;SDS011;4334;49.982;8.398;2023-06-26T10:11:14;6.53;;;3.25;;
8592;SDS011;4334;49.982;8.398;2023-06-26T10:13:43;3.55;;;3.25;;
8592;SDS011;4334;49.982;8.398;2023-06-26T10:16:12;4.20;;;3.05;;
8592;SDS011;4334;49.982;8.398;2023-06-26T10:18:41;4.03;;;3.25;;
8592;SDS011;4334;49.982;8.398;2023-06-26T10:21:10;3.45;;;2.83;;
8592;SDS011;4334;49.982;8.398;2023-06-26T10:23:39;4.75;;;2.78;;
8592;SDS011;4334;49.982;8.398;2023-06-26T10:26:08;3.58;;;3.03;;
8592;SDS011;4334;49.982;8.398;2023-06-26T10:28:35;3.88;;;3.10;;
8592;SDS011;4334;49.982;8.398;2023-06-26T10:31:02;3.28;;;2.72;;
8592;SDS011;4334;49.982;8.398;2023-06-26T10:33:31;3.00;;;2.70;;
8592;SDS011;4334;49.982;8.398;2023-06-26T10:36:13;3.10;;;2.67;;
8592;SDS011;4334;49.982;8.398;2023-06-26T10:38:50;3.72;;;3.00;;
8592;SDS011;4334;49.982;8.398;2023-06-26T10:41:21;4.60;;;3.15;;
8592;SDS011;4334;49.982;8.398;2023-06-26T10:43:49;3.90;;;3.08;;
8592;SDS011;4334;49.982;8.398;2023-06-26T10:46:17;8.07;;;3.00;;
8592;SDS011;4334;49.982;8.398;2023-06-26T10:48:58;3.45;;;2.78;;
8592;SDS011;4334;49.982;8.398;2023-06-26T10:51:27;3.08;;;2.50;;
8592;SDS011;4334;49.982;8.398;2023-06-26T10:53:55;4.72;;;2.63;;
8592;SDS011;4334;49.982;8.398;2023-06-26T10:56:40;6.93;;;2.97;;
8592;SDS011;4334;49.982;8.398;2023-06-26T10:59:11;3.15;;;2.80;;
8592;SDS011;4334;49.982;8.398;2023-06-26T11:01:40;3.65;;;3.00;;
8592;SDS011;4334;49.982;8.398;2023-06-26T11:04:07;4.50;;;2.55;;
8592;SDS011;4334;49.982;8.398;2023-06-26T11:06:37;4.80;;;2.70;;
8592;SDS011;4334;49.982;8.398;2023-06-26T11:09:09;3.15;;;2.40;;
8592;SDS011;4334;49.982;8.398;2023-06-26T11:11:58;3.58;;;2.30;;
8592;SDS011;4334;49.982;8.398;2023-06-26T11:14:29;4.38;;;2.83;;
8592;SDS011;4334;49.982;8.398;2023-06-26T11:16:57;2.90;;;2.47;;
8592;SDS011;4334;49.982;8.398;2023-06-26T11:19:25;5.05;;;2.60;;
8592;SDS011;4334;49.982;8.398;2023-06-26T11:21:54;4.10;;;3.00;;
8592;SDS011;4334;49.982;8.398;2023-06-26T11:24:24;3.10;;;2.50;;
8592;SDS011;4334;49.982;8.398;2023-06-26T11:26:53;3.70;;;2.47;;
8592;SDS011;4334;49.982;8.398;2023-06-26T11:29:20;4.00;;;2.47;;
8592;SDS011;4334;49.982;8.398;2023-06-26T11:31:48;3.10;;;2.33;;
8592;SDS011;4334;49.982;8.398;2023-06-26T11:34:28;4.38;;;2.50;;
8592;SDS011;4334;49.982;8.398;2023-06-26T11:36:57;6.22;;;3.00;;
8592;SDS011;4334;49.982;8.398;2023-06-26T11:39:26;2.38;;;2.17;;
8592;SDS011;4334;49.982;8.398;2023-06-26T11:41:53;4.18;;;2.95;;
8592;SDS011;4334;49.982;8.398;2023-06-26T11:44:21;3.58;;;2.97;;
8592;SDS011;4334;49.982;8.398;2023-06-26T11:46:51;4.25;;;3.30;;
8592;SDS011;4334;49.982;8.398;2023-06-26T11:49:20;3.53;;;2.92;;
8592;SDS011;4334;49.982;8.398;2023-06-26T11:51:48;3.40;;;3.00;;
8592;SDS011;4334;49.982;8.398;2023-06-26T11:54:22;5.55;;;3.85;;
8592;SDS011;4334;49.982;8.398;2023-06-26T11:56:53;4.88;;;3.55;;
8592;SDS011;4334;49.982;8.398;2023-06-26T11:59:21;4.43;;;3.47;;
8592;SDS011;4334;49.982;8.398;2023-06-26T12:01:49;5.03;;;4.18;;
8592;SDS011;4334;49.982;8.398;2023-06-26T12:04:18;4.50;;;3.70;;
8592;SDS011;4334;49.982;8.398;2023-06-26T12:06:46;7.28;;;3.38;;
8592;SDS011;4334;49.982;8.398;2023-06-26T12:09:13;4.68;;;3.83;;
8592;SDS011;4334;49.982;8.398;2023-06-26T12:11:43;6.00;;;3.58;;
8592;SDS011;4334;49.982;8.398;2023-06-26T12:14:12;4.97;;;3.40;;
8592;SDS011;4334;49.982;8.398;2023-06-26T12:16:39;4.80;;;3.03;;
8592;SDS011;4334;49.982;8.398;2023-06-26T12:19:07;7.65;;;3.50;;
8592;SDS011;4334;49.982;8.398;2023-06-26T12:21:45;5.60;;;3.67;;
8592;SDS011;4334;49.982;8.398;2023-06-26T12:24:13;3.80;;;3.40;;
8592;SDS011;4334;49.982;8.398;2023-06-26T12:26:42;3.97;;;3.40;;
8592;SDS011;4334;49.982;8.398;2023-06-26T12:29:10;4.30;;;2.95;;
8592;SDS011;4334;49.982;8.398;2023-06-26T12:31:39;5.10;;;3.10;;
8592;SDS011;4334;49.982;8.398;2023-06-26T12:34:08;3.22;;;2.65;;
8592;SDS011;4334;49.982;8.398;2023-06-26T12:36:39;5.15;;;2.78;;
8592;SDS011;4334;49.982;8.398;2023-06-26T12:39:08;4.03;;;2.97;;
8592;SDS011;4334;49.982;8.398;2023-06-26T12:41:44;3.80;;;2.63;;
8592;SDS011;4334;49.982;8.398;2023-06-26T12:44:18;3.22;;;2.50;;
8592;SDS011;4334;49.982;8.398;2023-06-26T12:46:46;10.32;;;3.35;;
8592;SDS011;4334;49.982;8.398;2023-06-26T12:49:13;2.85;;;2.55;;
8592;SDS011;4334;49.982;8.398;2023-06-26T12:51:40;3.33;;;2.63;;
8592;SDS011;4334;49.982;8.398;2023-06-26T12:54:08;5.65;;;2.83;;
8592;SDS011;4334;49.982;8.398;2023-06-26T12:56:35;3.22;;;2.53;;
8592;SDS011;4334;49.982;8.398;2023-06-26T12:59:03;4.95;;;2.70;;
8592;SDS011;4334;49.982;8.398;2023-06-26T13:01:31;3.00;;;2.58;;
8592;SDS011;4334;49.982;8.398;2023-06-26T13:03:59;3.00;;;2.38;;
8592;SDS011;4334;49.982;8.398;2023-06-26T13:06:26;5.35;;;2.75;;
8592;SDS011;4334;49.982;8.398;2023-06-26T13:08:53;3.22;;;2.75;;
8592;SDS011;4334;49.982;8.398;2023-06-26T13:11:20;3.75;;;2.75;;
8592;SDS011;4334;49.982;8.398;2023-06-26T13:13:48;3.35;;;2.45;;
8592;SDS011;4334;49.982;8.398;2023-06-26T13:16:16;4.85;;;2.65;;
8592;SDS011;4334;49.982;8.398;2023-06-26T13:18:44;2.45;;;2.15;;
8592;SDS011;4334;49.982;8.398;2023-06-26T13:21:12;7.45;;;2.80;;
8592;SDS011;4334;49.982;8.398;2023-06-26T13:23:39;4.05;;;2.88;;
8592;SDS011;4334;49.982;8.398;2023-06-26T13:26:06;3.05;;;2.35;;
8592;SDS011;4334;49.982;8.398;2023-06-26T13:28:33;2.65;;;2.20;;
8592;SDS011;4334;49.982;8.398;2023-06-26T13:31:01;2.40;;;2.03;;
8592;SDS011;4334;49.982;8.398;2023-06-26T13:33:29;2.42;;;2.22;;
8592;SDS011;4334;49.982;8.398;2023-06-26T13:35:56;3.85;;;2.28;;
8592;SDS011;4334;49.982;8.398;2023-06-26T13:38:24;3.03;;;2.42;;
8592;SDS011;4334;49.982;8.398;2023-06-26T13:40:51;2.33;;;2.13;;
8592;SDS011;4334;49.982;8.398;2023-06-26T13:43:19;5.05;;;2.00;;
8592;SDS011;4334;49.982;8.398;2023-06-26T13:45:47;2.95;;;2.30;;
8592;SDS011;4334;49.982;8.398;2023-06-26T13:48:14;3.00;;;2.45;;
8592;SDS011;4334;49.982;8.398;2023-06-26T13:50:42;5.40;;;2.28;;
8592;SDS011;4334;49.982;8.398;2023-06-26T13:53:09;3.30;;;2.63;;
8592;SDS011;4334;49.982;8.398;2023-06-26T13:55:36;3.78;;;2.13;;
8592;SDS011;4334;49.982;8.398;2023-06-26T13:58:04;2.45;;;2.22;;
8592;SDS011;4334;49.982;8.398;2023-06-26T14:00:31;3.67;;;2.13;;
8592;SDS011;4334;49.982;8.398;2023-06-26T14:02:59;3.10;;;2.25;;
8592;SDS011;4334;49.982;8.398;2023-06-26T14:05:26;6.45;;;2.00;;
8592;SDS011;4334;49.982;8.398;2023-06-26T14:07:54;5.25;;;1.95;;
8592;SDS011;4334;49.982;8.398;2023-06-26T14:10:22;2.60;;;2.00;;
8592;SDS011;4334;49.982;8.398;2023-06-26T14:12:49;3.78;;;2.28;;
8592;SDS011;4334;49.982;8.398;2023-06-26T14:15:16;3.15;;;1.88;;
8592;SDS011;4334;49.982;8.398;2023-06-26T14:17:43;3.47;;;2.20;;
8592;SDS011;4334;49.982;8.398;2023-06-26T14:20:12;4.60;;;1.90;;
8592;SDS011;4334;49.982;8.398;2023-06-26T14:22:40;4.35;;;2.05;;
8592;SDS011;4334;49.982;8.398;2023-06-26T14:25:08;2.30;;;1.52;;
8592;SDS011;4334;49.982;8.398;2023-06-26T14:27:36;2.13;;;1.80;;
8592;SDS011;4334;49.982;8.398;2023-06-26T14:30:05;4.18;;;1.75;;
8592;SDS011;4334;49.982;8.398;2023-06-26T14:32:32;4.03;;;2.03;;
8592;SDS011;4334;49.982;8.398;2023-06-26T14:35:00;7.32;;;2.22;;
8592;SDS011;4334;49.982;8.398;2023-06-26T14:37:29;5.50;;;2.10;;
8592;SDS011;4334;49.982;8.398;2023-06-26T14:39:57;3.10;;;1.63;;
8592;SDS011;4334;49.982;8.398;2023-06-26T14:42:26;4.05;;;1.75;;
8592;SDS011;4334;49.982;8.398;2023-06-26T14:44:53;3.47;;;1.85;;
8592;SDS011;4334;49.982;8.398;2023-06-26T14:47:20;2.70;;;1.65;;
8592;SDS011;4334;49.982;8.398;2023-06-26T14:49:47;2.17;;;1.63;;
8592;SDS011;4334;49.982;8.398;2023-06-26T14:52:14;2.25;;;1.65;;
8592;SDS011;4334;49.982;8.398;2023-06-26T14:54:41;3.92;;;1.73;;
8592;SDS011;4334;49.982;8.398;2023-06-26T14:57:08;3.83;;;1.65;;
8592;SDS011;4334;49.982;8.398;2023-06-26T14:59:37;3.10;;;1.58;;
8592;SDS011;4334;49.982;8.398;2023-06-26T15:02:04;2.30;;;1.90;;
8592;SDS011;4334;49.982;8.398;2023-06-26T15:04:31;2.30;;;1.83;;
8592;SDS011;4334;49.982;8.398;2023-06-26T15:06:58;1.65;;;1.55;;
8592;SDS011;4334;49.982;8.398;2023-06-26T15:09:26;3.20;;;1.50;;
8592;SDS011;4334;49.982;8.398;2023-06-26T15:11:53;6.63;;;1.50;;
8592;SDS011;4334;49.982;8.398;2023-06-26T15:14:20;3.53;;;1.55;;
8592;SDS011;4334;49.982;8.398;2023-06-26T15:16:48;3.90;;;2.00;;
8592;SDS011;4334;49.982;8.398;2023-06-26T15:19:15;2.40;;;1.60;;
8592;SDS011;4334;49.982;8.398;2023-06-26T15:21:42;2.67;;;1.25;;